Details From LIRF - Roma Fiumicino Leonardo Da Vinci
To HTZA - Zanzibar
Flight Number -
Tags Generated
Created
Modified
Stats Distance 3,242 nm / 6,004 km
Max Altitude 0 ft / 0 m
Waypoints 10
Social Downloads 1
Likes 0
Share VATSIM

Download

Looking for another format? Having issues loading an existing format? Contact us
Advertisement - Login to hide

Notes

Generated

Route

LIRF TAGEL TADIX SIG37 LASGO OV OBD EA GABSO HTZA

ID Type Via Altitude Latitude Longitude Leg Dist Tot Dist Heading (true) Name
O LIRF APT - 0 ft / 0 m 41.79932˚ 12.23212˚ - 0 nm - -
TAGEL FIX - 0 ft / 0 m 40.29778˚ 13.31111˚ 102 nm 102 nm 151° / 152° -
TADIX FIX - 0 ft / 0 m 38.83028˚ 14.36111˚ 100 nm 203 nm 151° / 151° -
SIG37 FIX - 0 ft / 0 m 37.45312˚ 15.57349˚ 100 nm 303 nm 145° / 146° -
LASGO FIX - 0 ft / 0 m 35.35139˚ 17.35639˚ 152 nm 456 nm 145° / 146° -
OV NDB - 0 ft / 0 m 29.23333˚ 21.55000˚ 424 nm 881 nm 149° / 151° NAFOORA M4 NDB
OBD VOR - 0 ft / 0 m 13.14769˚ 30.23344˚ 1080 nm 1961 nm 152° / 155° EL OBEID VOR-DME
EA NDB - 0 ft / 0 m -1.26505˚ 36.86793˚ 951 nm 2913 nm 155° / 156° EASTLEIGH NDB
GABSO FIX - 0 ft / 0 m -2.85248˚ 37.56752˚ 104 nm 3017 nm 156° / 156° -
O HTZA APT - 0 ft / 0 m -6.21098˚ 39.22377˚ 224 nm 3242 nm 154° / 154° -

Altitude Profile

Weather

Temperature
Clouds and Precipitation
Forecast for 2016-12-03 06:00 UTC. Updated an hour ago
Winds

LIRF

Details ICAO LIRF (FCO)
Name Roma Fiumicino Leonardo Da Vinci
Region Italy
Timezone Europe/Rome (UTC+1.0)
Stats Elevation 15 ft / 5 m (AMSL)
Location 41.810809° 12.250897°
Runways 3
Magnetic Variation 2.886° E

METAR

LIRF 030150Z 09005KT 9999 FEW050 09/07 Q1017 NOSIG

Decode

TAF

TAF LIRF 022300Z 0300/0406 08006KT 6000 BKN040

Decode

Departure Runways

ID Width Length Bearing (true) Bearing (mag) Surface Threshold Offset Overrun Length
07 148 ft / 45 m 10,835 ft / 3,302 m 69.67° 66.78° Asphalt 1,365 ft / 416 m 0 ft / 0 m
16L 197 ft / 60 m 12,832 ft / 3,911 m 162.67° 159.78° Asphalt 0 ft / 0 m 0 ft / 0 m
16R 197 ft / 60 m 12,822 ft / 3,908 m 162.66° 159.77° Asphalt 0 ft / 0 m 0 ft / 0 m
25 148 ft / 45 m 10,835 ft / 3,302 m 249.70° 246.81° Asphalt 0 ft / 0 m 0 ft / 0 m
34L 197 ft / 60 m 12,822 ft / 3,908 m 342.67° 339.78° Asphalt 1,053 ft / 321 m 0 ft / 0 m
34R 197 ft / 60 m 12,832 ft / 3,911 m 342.68° 339.79° Asphalt 0 ft / 0 m 0 ft / 0 m

HTZA

Details ICAO HTZA (ZNZ)
Name ZANZIBAR
Region Tanzania
Timezone Africa/Dar_es_Salaam (UTC+3.0)
Stats Elevation 54 ft / 16 m (AMSL)
Location -6.222024° 39.224885°
Runways 1
Magnetic Variation 1.815° W

METAR

Not found

TAF

TAF HTZA 021700Z 0218/0318 00000KT 9999 FEW018 BECMG 0303/0305 06010KT BKN016 BECMG 0312/0314 SCT020

Decode

Destination Runways

ID Width Length Bearing (true) Bearing (mag) Surface Threshold Offset Overrun Length
18 148 ft / 45 m 8,100 ft / 2,469 m 174.27° 176.09° Asphalt 0 ft / 0 m 0 ft / 0 m
36 148 ft / 45 m 8,100 ft / 2,469 m 354.27° 356.09° Asphalt 0 ft / 0 m 0 ft / 0 m